sensor_id;sensor_type;location;lat;lon;timestamp;P1;durP1;ratioP1;P2;durP2;ratioP2
50483;SDS011;36409;52.168;20.878;2023-06-19T00:00:46;8.80;;;7.27;;
50483;SDS011;36409;52.168;20.878;2023-06-19T00:03:35;10.83;;;8.20;;
50483;SDS011;36409;52.168;20.878;2023-06-19T00:06:07;9.23;;;7.97;;
50483;SDS011;36409;52.168;20.878;2023-06-19T00:08:44;10.30;;;7.73;;
50483;SDS011;36409;52.168;20.878;2023-06-19T00:11:17;11.22;;;7.03;;
50483;SDS011;36409;52.168;20.878;2023-06-19T00:13:46;9.47;;;7.53;;
50483;SDS011;36409;52.168;20.878;2023-06-19T00:16:16;11.40;;;8.10;;
50483;SDS011;36409;52.168;20.878;2023-06-19T00:18:47;11.33;;;7.60;;
50483;SDS011;36409;52.168;20.878;2023-06-19T00:21:23;9.30;;;8.03;;
50483;SDS011;36409;52.168;20.878;2023-06-19T00:23:56;11.80;;;7.67;;
50483;SDS011;36409;52.168;20.878;2023-06-19T00:26:27;8.47;;;7.13;;
50483;SDS011;36409;52.168;20.878;2023-06-19T00:28:58;10.83;;;7.43;;
50483;SDS011;36409;52.168;20.878;2023-06-19T00:31:34;10.13;;;8.27;;
50483;SDS011;36409;52.168;20.878;2023-06-19T00:34:04;9.60;;;7.87;;
50483;SDS011;36409;52.168;20.878;2023-06-19T00:36:35;11.63;;;8.17;;
50483;SDS011;36409;52.168;20.878;2023-06-19T00:39:08;11.30;;;8.40;;
50483;SDS011;36409;52.168;20.878;2023-06-19T00:41:41;10.77;;;7.83;;
50483;SDS011;36409;52.168;20.878;2023-06-19T00:44:18;10.80;;;7.07;;
50483;SDS011;36409;52.168;20.878;2023-06-19T00:46:50;11.00;;;7.67;;
50483;SDS011;36409;52.168;20.878;2023-06-19T00:49:28;10.13;;;7.73;;
50483;SDS011;36409;52.168;20.878;2023-06-19T00:52:03;8.93;;;7.10;;
50483;SDS011;36409;52.168;20.878;2023-06-19T00:54:37;9.20;;;7.33;;
50483;SDS011;36409;52.168;20.878;2023-06-19T00:57:06;10.60;;;7.43;;
50483;SDS011;36409;52.168;20.878;2023-06-19T00:59:41;15.63;;;7.40;;
50483;SDS011;36409;52.168;20.878;2023-06-19T01:02:11;10.10;;;7.60;;
50483;SDS011;36409;52.168;20.878;2023-06-19T01:04:43;12.23;;;7.50;;
50483;SDS011;36409;52.168;20.878;2023-06-19T01:07:12;9.23;;;7.63;;
50483;SDS011;36409;52.168;20.878;2023-06-19T01:09:49;8.90;;;7.03;;
50483;SDS011;36409;52.168;20.878;2023-06-19T01:12:32;8.67;;;7.60;;
50483;SDS011;36409;52.168;20.878;2023-06-19T01:15:07;10.80;;;7.97;;
50483;SDS011;36409;52.168;20.878;2023-06-19T01:17:37;9.10;;;7.80;;
50483;SDS011;36409;52.168;20.878;2023-06-19T01:20:08;9.70;;;7.63;;
50483;SDS011;36409;52.168;20.878;2023-06-19T01:22:42;10.45;;;8.60;;
50483;SDS011;36409;52.168;20.878;2023-06-19T01:25:20;14.53;;;7.73;;
50483;SDS011;36409;52.168;20.878;2023-06-19T01:27:49;11.65;;;8.05;;
50483;SDS011;36409;52.168;20.878;2023-06-19T01:30:29;13.50;;;7.50;;
50483;SDS011;36409;52.168;20.878;2023-06-19T01:33:06;13.07;;;7.97;;
50483;SDS011;36409;52.168;20.878;2023-06-19T01:35:43;11.80;;;8.10;;
50483;SDS011;36409;52.168;20.878;2023-06-19T01:38:19;8.57;;;7.20;;
50483;SDS011;36409;52.168;20.878;2023-06-19T01:40:55;9.37;;;7.67;;
50483;SDS011;36409;52.168;20.878;2023-06-19T01:43:32;10.80;;;8.23;;
50483;SDS011;36409;52.168;20.878;2023-06-19T01:46:09;14.80;;;8.63;;
50483;SDS011;36409;52.168;20.878;2023-06-19T01:48:38;13.27;;;8.10;;
50483;SDS011;36409;52.168;20.878;2023-06-19T01:51:07;9.30;;;7.60;;
50483;SDS011;36409;52.168;20.878;2023-06-19T01:53:39;9.37;;;7.83;;
50483;SDS011;36409;52.168;20.878;2023-06-19T01:56:10;10.07;;;7.80;;
50483;SDS011;36409;52.168;20.878;2023-06-19T01:58:40;10.80;;;8.40;;
50483;SDS011;36409;52.168;20.878;2023-06-19T02:01:09;10.90;;;7.63;;
50483;SDS011;36409;52.168;20.878;2023-06-19T02:03:38;9.13;;;7.73;;
50483;SDS011;36409;52.168;20.878;2023-06-19T02:06:08;10.53;;;7.77;;
50483;SDS011;36409;52.168;20.878;2023-06-19T02:08:37;11.23;;;7.37;;
50483;SDS011;36409;52.168;20.878;2023-06-19T02:11:15;11.30;;;7.50;;
50483;SDS011;36409;52.168;20.878;2023-06-19T02:13:44;14.20;;;7.57;;
50483;SDS011;36409;52.168;20.878;2023-06-19T02:16:13;8.80;;;7.30;;
50483;SDS011;36409;52.168;20.878;2023-06-19T02:18:43;10.90;;;8.17;;
50483;SDS011;36409;52.168;20.878;2023-06-19T02:21:14;11.40;;;8.50;;
50483;SDS011;36409;52.168;20.878;2023-06-19T02:23:45;9.43;;;7.83;;
50483;SDS011;36409;52.168;20.878;2023-06-19T02:26:14;10.83;;;8.07;;
50483;SDS011;36409;52.168;20.878;2023-06-19T02:28:45;12.50;;;8.13;;
50483;SDS011;36409;52.168;20.878;2023-06-19T02:31:14;14.67;;;7.77;;
50483;SDS011;36409;52.168;20.878;2023-06-19T02:33:43;11.20;;;8.43;;
50483;SDS011;36409;52.168;20.878;2023-06-19T02:36:12;11.13;;;8.33;;
50483;SDS011;36409;52.168;20.878;2023-06-19T02:38:46;14.47;;;8.47;;
50483;SDS011;36409;52.168;20.878;2023-06-19T02:41:16;10.30;;;8.07;;
50483;SDS011;36409;52.168;20.878;2023-06-19T02:43:49;10.87;;;8.63;;
50483;SDS011;36409;52.168;20.878;2023-06-19T02:46:21;10.70;;;7.65;;
50483;SDS011;36409;52.168;20.878;2023-06-19T02:48:50;9.33;;;7.77;;
50483;SDS011;36409;52.168;20.878;2023-06-19T02:51:19;9.97;;;7.77;;
50483;SDS011;36409;52.168;20.878;2023-06-19T02:53:48;10.93;;;8.60;;
50483;SDS011;36409;52.168;20.878;2023-06-19T02:56:18;10.77;;;8.93;;
50483;SDS011;36409;52.168;20.878;2023-06-19T02:58:47;10.03;;;8.50;;
50483;SDS011;36409;52.168;20.878;2023-06-19T03:01:16;10.63;;;7.93;;
50483;SDS011;36409;52.168;20.878;2023-06-19T03:03:49;13.50;;;7.87;;
50483;SDS011;36409;52.168;20.878;2023-06-19T03:06:23;13.47;;;8.07;;
50483;SDS011;36409;52.168;20.878;2023-06-19T03:08:53;9.07;;;7.83;;
50483;SDS011;36409;52.168;20.878;2023-06-19T03:11:23;11.57;;;8.70;;
50483;SDS011;36409;52.168;20.878;2023-06-19T03:13:52;10.07;;;8.47;;
50483;SDS011;36409;52.168;20.878;2023-06-19T03:16:26;13.03;;;8.40;;
50483;SDS011;36409;52.168;20.878;2023-06-19T03:18:55;10.83;;;7.80;;
50483;SDS011;36409;52.168;20.878;2023-06-19T03:21:24;11.23;;;8.30;;
50483;SDS011;36409;52.168;20.878;2023-06-19T03:23:54;10.40;;;8.45;;
50483;SDS011;36409;52.168;20.878;2023-06-19T03:26:23;9.17;;;7.73;;
50483;SDS011;36409;52.168;20.878;2023-06-19T03:28:53;10.20;;;7.73;;
50483;SDS011;36409;52.168;20.878;2023-06-19T03:31:26;9.57;;;8.40;;
50483;SDS011;36409;52.168;20.878;2023-06-19T03:34:00;10.07;;;8.17;;
50483;SDS011;36409;52.168;20.878;2023-06-19T03:36:30;10.90;;;8.13;;
50483;SDS011;36409;52.168;20.878;2023-06-19T03:39:06;10.13;;;8.60;;
50483;SDS011;36409;52.168;20.878;2023-06-19T03:41:36;10.93;;;9.00;;
50483;SDS011;36409;52.168;20.878;2023-06-19T03:44:08;10.43;;;8.03;;
50483;SDS011;36409;52.168;20.878;2023-06-19T03:49:59;10.07;;;8.93;;
50483;SDS011;36409;52.168;20.878;2023-06-19T03:52:47;12.30;;;9.43;;
50483;SDS011;36409;52.168;20.878;2023-06-19T03:55:20;12.67;;;10.20;;
50483;SDS011;36409;52.168;20.878;2023-06-19T03:57:50;15.37;;;10.70;;
50483;SDS011;36409;52.168;20.878;2023-06-19T04:00:23;11.37;;;9.83;;
50483;SDS011;36409;52.168;20.878;2023-06-19T04:03:03;12.60;;;10.27;;
50483;SDS011;36409;52.168;20.878;2023-06-19T04:05:35;11.70;;;9.97;;
50483;SDS011;36409;52.168;20.878;2023-06-19T04:08:08;11.63;;;9.97;;
50483;SDS011;36409;52.168;20.878;2023-06-19T04:10:44;13.70;;;11.97;;
50483;SDS011;36409;52.168;20.878;2023-06-19T04:13:22;15.57;;;10.60;;
50483;SDS011;36409;52.168;20.878;2023-06-19T04:16:02;16.07;;;10.20;;
50483;SDS011;36409;52.168;20.878;2023-06-19T04:18:42;15.93;;;10.33;;
50483;SDS011;36409;52.168;20.878;2023-06-19T04:21:11;12.47;;;9.80;;
50483;SDS011;36409;52.168;20.878;2023-06-19T04:23:42;11.10;;;9.97;;
50483;SDS011;36409;52.168;20.878;2023-06-19T04:26:13;13.80;;;10.65;;
50483;SDS011;36409;52.168;20.878;2023-06-19T04:28:43;13.97;;;10.60;;
50483;SDS011;36409;52.168;20.878;2023-06-19T04:31:13;13.27;;;10.37;;
50483;SDS011;36409;52.168;20.878;2023-06-19T04:33:49;14.07;;;11.43;;
50483;SDS011;36409;52.168;20.878;2023-06-19T04:36:23;14.50;;;10.40;;
50483;SDS011;36409;52.168;20.878;2023-06-19T04:41:50;14.50;;;9.80;;
50483;SDS011;36409;52.168;20.878;2023-06-19T04:44:21;13.00;;;10.03;;
50483;SDS011;36409;52.168;20.878;2023-06-19T04:46:51;12.50;;;9.27;;
50483;SDS011;36409;52.168;20.878;2023-06-19T04:49:35;10.73;;;8.73;;
50483;SDS011;36409;52.168;20.878;2023-06-19T04:52:07;11.87;;;8.07;;
50483;SDS011;36409;52.168;20.878;2023-06-19T04:54:39;11.40;;;7.23;;
50483;SDS011;36409;52.168;20.878;2023-06-19T04:57:29;8.30;;;7.10;;
50483;SDS011;36409;52.168;20.878;2023-06-19T05:00:11;10.07;;;6.73;;
50483;SDS011;36409;52.168;20.878;2023-06-19T05:02:42;8.00;;;6.40;;
50483;SDS011;36409;52.168;20.878;2023-06-19T05:05:17;11.37;;;7.07;;
50483;SDS011;36409;52.168;20.878;2023-06-19T05:07:51;8.77;;;6.77;;
50483;SDS011;36409;52.168;20.878;2023-06-19T05:10:21;7.10;;;5.97;;
50483;SDS011;36409;52.168;20.878;2023-06-19T05:12:51;7.50;;;5.90;;
50483;SDS011;36409;52.168;20.878;2023-06-19T05:15:22;7.10;;;5.50;;
50483;SDS011;36409;52.168;20.878;2023-06-19T05:17:57;11.27;;;5.47;;
50483;SDS011;36409;52.168;20.878;2023-06-19T05:20:30;6.53;;;5.83;;
50483;SDS011;36409;52.168;20.878;2023-06-19T05:23:01;8.70;;;5.87;;
50483;SDS011;36409;52.168;20.878;2023-06-19T05:25:35;9.15;;;5.55;;
50483;SDS011;36409;52.168;20.878;2023-06-19T05:28:05;7.00;;;5.53;;
50483;SDS011;36409;52.168;20.878;2023-06-19T05:30:40;9.23;;;5.97;;
50483;SDS011;36409;52.168;20.878;2023-06-19T05:33:26;9.03;;;6.63;;
50483;SDS011;36409;52.168;20.878;2023-06-19T05:36:00;7.63;;;5.40;;
50483;SDS011;36409;52.168;20.878;2023-06-19T05:38:31;7.33;;;6.13;;
50483;SDS011;36409;52.168;20.878;2023-06-19T05:41:03;7.87;;;5.50;;
50483;SDS011;36409;52.168;20.878;2023-06-19T05:43:37;7.40;;;5.73;;
50483;SDS011;36409;52.168;20.878;2023-06-19T05:46:09;7.50;;;5.72;;
50483;SDS011;36409;52.168;20.878;2023-06-19T05:48:39;7.70;;;5.40;;
50483;SDS011;36409;52.168;20.878;2023-06-19T05:51:08;8.30;;;6.10;;
50483;SDS011;36409;52.168;20.878;2023-06-19T05:53:37;9.45;;;5.80;;
50483;SDS011;36409;52.168;20.878;2023-06-19T05:56:06;8.17;;;5.23;;
50483;SDS011;36409;52.168;20.878;2023-06-19T05:58:38;6.47;;;5.10;;
50483;SDS011;36409;52.168;20.878;2023-06-19T06:01:10;8.80;;;5.97;;
50483;SDS011;36409;52.168;20.878;2023-06-19T06:03:44;6.17;;;4.97;;
50483;SDS011;36409;52.168;20.878;2023-06-19T06:06:14;11.17;;;6.03;;
50483;SDS011;36409;52.168;20.878;2023-06-19T06:08:43;10.30;;;6.30;;
50483;SDS011;36409;52.168;20.878;2023-06-19T06:11:15;7.60;;;5.80;;
50483;SDS011;36409;52.168;20.878;2023-06-19T06:13:44;8.33;;;5.53;;
50483;SDS011;36409;52.168;20.878;2023-06-19T06:16:16;6.73;;;5.20;;
50483;SDS011;36409;52.168;20.878;2023-06-19T06:18:45;7.57;;;5.27;;
50483;SDS011;36409;52.168;20.878;2023-06-19T06:21:19;6.30;;;4.97;;
50483;SDS011;36409;52.168;20.878;2023-06-19T06:23:48;6.17;;;4.47;;
50483;SDS011;36409;52.168;20.878;2023-06-19T06:26:17;5.53;;;3.70;;
50483;SDS011;36409;52.168;20.878;2023-06-19T06:28:46;5.70;;;3.77;;
50483;SDS011;36409;52.168;20.878;2023-06-19T06:31:15;5.35;;;3.80;;
50483;SDS011;36409;52.168;20.878;2023-06-19T06:33:48;4.80;;;3.90;;
50483;SDS011;36409;52.168;20.878;2023-06-19T06:36:25;12.23;;;4.57;;
50483;SDS011;36409;52.168;20.878;2023-06-19T06:39:07;5.80;;;3.60;;
50483;SDS011;36409;52.168;20.878;2023-06-19T06:41:41;6.57;;;4.93;;
50483;SDS011;36409;52.168;20.878;2023-06-19T06:44:12;5.70;;;4.53;;
50483;SDS011;36409;52.168;20.878;2023-06-19T06:46:57;6.13;;;4.73;;
50483;SDS011;36409;52.168;20.878;2023-06-19T06:49:29;5.67;;;4.80;;
50483;SDS011;36409;52.168;20.878;2023-06-19T06:51:58;7.57;;;4.37;;
50483;SDS011;36409;52.168;20.878;2023-06-19T06:54:28;5.97;;;4.40;;
50483;SDS011;36409;52.168;20.878;2023-06-19T06:56:58;6.43;;;4.17;;
50483;SDS011;36409;52.168;20.878;2023-06-19T06:59:27;6.43;;;4.17;;
50483;SDS011;36409;52.168;20.878;2023-06-19T07:01:56;5.33;;;3.83;;
50483;SDS011;36409;52.168;20.878;2023-06-19T07:04:25;8.47;;;4.20;;
50483;SDS011;36409;52.168;20.878;2023-06-19T07:06:56;5.10;;;4.10;;
50483;SDS011;36409;52.168;20.878;2023-06-19T07:09:25;4.80;;;3.60;;
50483;SDS011;36409;52.168;20.878;2023-06-19T07:11:54;6.07;;;4.17;;
50483;SDS011;36409;52.168;20.878;2023-06-19T07:14:24;5.97;;;3.80;;
50483;SDS011;36409;52.168;20.878;2023-06-19T07:16:53;4.97;;;3.97;;
50483;SDS011;36409;52.168;20.878;2023-06-19T07:19:22;5.13;;;3.60;;
50483;SDS011;36409;52.168;20.878;2023-06-19T07:21:51;5.07;;;3.77;;
50483;SDS011;36409;52.168;20.878;2023-06-19T07:24:20;5.00;;;3.50;;
50483;SDS011;36409;52.168;20.878;2023-06-19T07:26:59;4.77;;;3.43;;
50483;SDS011;36409;52.168;20.878;2023-06-19T07:29:28;5.77;;;3.20;;
50483;SDS011;36409;52.168;20.878;2023-06-19T07:31:57;5.10;;;3.60;;
50483;SDS011;36409;52.168;20.878;2023-06-19T07:34:28;4.77;;;3.47;;
50483;SDS011;36409;52.168;20.878;2023-06-19T07:36:57;5.07;;;3.60;;
50483;SDS011;36409;52.168;20.878;2023-06-19T07:39:28;6.20;;;4.17;;
50483;SDS011;36409;52.168;20.878;2023-06-19T07:41:58;7.37;;;4.30;;
50483;SDS011;36409;52.168;20.878;2023-06-19T07:44:27;7.70;;;4.83;;
50483;SDS011;36409;52.168;20.878;2023-06-19T07:46:56;5.93;;;4.60;;
50483;SDS011;36409;52.168;20.878;2023-06-19T07:49:28;5.90;;;4.23;;
50483;SDS011;36409;52.168;20.878;2023-06-19T07:51:57;5.67;;;4.63;;
50483;SDS011;36409;52.168;20.878;2023-06-19T07:54:25;5.93;;;4.13;;
50483;SDS011;36409;52.168;20.878;2023-06-19T07:56:54;6.27;;;4.73;;
50483;SDS011;36409;52.168;20.878;2023-06-19T07:59:23;5.37;;;4.23;;
50483;SDS011;36409;52.168;20.878;2023-06-19T08:01:52;5.10;;;3.87;;
50483;SDS011;36409;52.168;20.878;2023-06-19T08:04:21;6.53;;;3.80;;
50483;SDS011;36409;52.168;20.878;2023-06-19T08:06:52;5.23;;;3.87;;
50483;SDS011;36409;52.168;20.878;2023-06-19T08:09:23;5.20;;;3.90;;
50483;SDS011;36409;52.168;20.878;2023-06-19T08:11:52;5.30;;;3.93;;
50483;SDS011;36409;52.168;20.878;2023-06-19T08:14:21;5.83;;;4.23;;
50483;SDS011;36409;52.168;20.878;2023-06-19T08:16:53;6.00;;;3.70;;
50483;SDS011;36409;52.168;20.878;2023-06-19T08:19:23;5.37;;;3.90;;
50483;SDS011;36409;52.168;20.878;2023-06-19T08:21:54;4.77;;;3.60;;
50483;SDS011;36409;52.168;20.878;2023-06-19T08:24:26;4.70;;;3.67;;
50483;SDS011;36409;52.168;20.878;2023-06-19T08:26:56;5.80;;;3.43;;
50483;SDS011;36409;52.168;20.878;2023-06-19T08:29:26;4.90;;;3.63;;
50483;SDS011;36409;52.168;20.878;2023-06-19T08:31:55;4.43;;;3.50;;
50483;SDS011;36409;52.168;20.878;2023-06-19T08:34:26;6.73;;;3.37;;
50483;SDS011;36409;52.168;20.878;2023-06-19T08:36:55;4.87;;;3.23;;
50483;SDS011;36409;52.168;20.878;2023-06-19T08:39:24;4.87;;;3.37;;
50483;SDS011;36409;52.168;20.878;2023-06-19T08:41:55;5.33;;;3.67;;
50483;SDS011;36409;52.168;20.878;2023-06-19T08:44:25;7.23;;;3.67;;
50483;SDS011;36409;52.168;20.878;2023-06-19T08:46:54;4.80;;;3.30;;
50483;SDS011;36409;52.168;20.878;2023-06-19T08:49:33;4.33;;;3.17;;
50483;SDS011;36409;52.168;20.878;2023-06-19T08:52:07;6.37;;;3.33;;
50483;SDS011;36409;52.168;20.878;2023-06-19T08:54:39;5.47;;;3.27;;
50483;SDS011;36409;52.168;20.878;2023-06-19T08:57:20;5.83;;;3.60;;
50483;SDS011;36409;52.168;20.878;2023-06-19T09:00:02;5.10;;;3.67;;
50483;SDS011;36409;52.168;20.878;2023-06-19T09:02:37;5.57;;;3.67;;
50483;SDS011;36409;52.168;20.878;2023-06-19T09:05:14;4.97;;;3.50;;
50483;SDS011;36409;52.168;20.878;2023-06-19T09:07:54;4.53;;;3.27;;
50483;SDS011;36409;52.168;20.878;2023-06-19T09:10:24;6.10;;;3.10;;
50483;SDS011;36409;52.168;20.878;2023-06-19T09:12:58;5.07;;;3.40;;
50483;SDS011;36409;52.168;20.878;2023-06-19T09:15:28;5.50;;;3.00;;
50483;SDS011;36409;52.168;20.878;2023-06-19T09:18:08;4.43;;;2.90;;
50483;SDS011;36409;52.168;20.878;2023-06-19T09:20:39;4.50;;;2.90;;
50483;SDS011;36409;52.168;20.878;2023-06-19T09:23:11;8.07;;;3.23;;
50483;SDS011;36409;52.168;20.878;2023-06-19T09:25:48;4.63;;;2.97;;
50483;SDS011;36409;52.168;20.878;2023-06-19T09:28:19;5.00;;;3.13;;
50483;SDS011;36409;52.168;20.878;2023-06-19T09:30:55;6.10;;;3.30;;
50483;SDS011;36409;52.168;20.878;2023-06-19T09:33:26;5.10;;;3.30;;
50483;SDS011;36409;52.168;20.878;2023-06-19T09:35:58;4.07;;;2.90;;
50483;SDS011;36409;52.168;20.878;2023-06-19T09:38:31;4.47;;;2.77;;
50483;SDS011;36409;52.168;20.878;2023-06-19T09:41:12;4.77;;;2.93;;
50483;SDS011;36409;52.168;20.878;2023-06-19T09:43:43;5.40;;;3.17;;
50483;SDS011;36409;52.168;20.878;2023-06-19T09:48:45;4.23;;;3.17;;
50483;SDS011;36409;52.168;20.878;2023-06-19T09:51:23;6.67;;;3.37;;
50483;SDS011;36409;52.168;20.878;2023-06-19T09:53:58;4.20;;;3.20;;
50483;SDS011;36409;52.168;20.878;2023-06-19T09:56:31;5.17;;;2.83;;
50483;SDS011;36409;52.168;20.878;2023-06-19T09:59:05;6.93;;;3.50;;
50483;SDS011;36409;52.168;20.878;2023-06-19T10:01:42;6.00;;;3.35;;
50483;SDS011;36409;52.168;20.878;2023-06-19T10:04:13;6.73;;;3.53;;
50483;SDS011;36409;52.168;20.878;2023-06-19T10:06:44;5.10;;;3.10;;
50483;SDS011;36409;52.168;20.878;2023-06-19T10:09:15;4.17;;;3.10;;
50483;SDS011;36409;52.168;20.878;2023-06-19T10:11:46;5.70;;;3.20;;
50483;SDS011;36409;52.168;20.878;2023-06-19T10:14:19;6.40;;;3.60;;
50483;SDS011;36409;52.168;20.878;2023-06-19T10:16:51;5.70;;;3.30;;
50483;SDS011;36409;52.168;20.878;2023-06-19T10:19:21;5.53;;;3.30;;
50483;SDS011;36409;52.168;20.878;2023-06-19T10:21:54;9.00;;;3.40;;
50483;SDS011;36409;52.168;20.878;2023-06-19T10:24:25;10.70;;;3.47;;
50483;SDS011;36409;52.168;20.878;2023-06-19T10:26:58;5.07;;;3.30;;
50483;SDS011;36409;52.168;20.878;2023-06-19T10:29:38;7.10;;;3.43;;
50483;SDS011;36409;52.168;20.878;2023-06-19T10:32:27;7.33;;;3.10;;
50483;SDS011;36409;52.168;20.878;2023-06-19T10:35:10;4.37;;;2.80;;
50483;SDS011;36409;52.168;20.878;2023-06-19T10:37:39;4.63;;;3.00;;
50483;SDS011;36409;52.168;20.878;2023-06-19T10:40:10;4.63;;;3.40;;
50483;SDS011;36409;52.168;20.878;2023-06-19T10:42:40;4.70;;;3.00;;
50483;SDS011;36409;52.168;20.878;2023-06-19T10:45:11;4.97;;;3.27;;
50483;SDS011;36409;52.168;20.878;2023-06-19T10:47:43;6.97;;;3.00;;
50483;SDS011;36409;52.168;20.878;2023-06-19T10:50:13;4.93;;;3.40;;
50483;SDS011;36409;52.168;20.878;2023-06-19T10:52:43;5.77;;;3.00;;
50483;SDS011;36409;52.168;20.878;2023-06-19T10:55:18;5.43;;;3.00;;
50483;SDS011;36409;52.168;20.878;2023-06-19T10:57:51;4.40;;;3.10;;
50483;SDS011;36409;52.168;20.878;2023-06-19T11:00:24;4.73;;;2.87;;
50483;SDS011;36409;52.168;20.878;2023-06-19T11:02:54;3.70;;;2.80;;
50483;SDS011;36409;52.168;20.878;2023-06-19T11:08:03;5.00;;;3.23;;
50483;SDS011;36409;52.168;20.878;2023-06-19T11:10:32;4.67;;;2.97;;
50483;SDS011;36409;52.168;20.878;2023-06-19T11:13:02;5.23;;;3.30;;
50483;SDS011;36409;52.168;20.878;2023-06-19T11:15:32;4.83;;;2.97;;
50483;SDS011;36409;52.168;20.878;2023-06-19T11:20:43;5.85;;;3.10;;
50483;SDS011;36409;52.168;20.878;2023-06-19T11:23:13;5.17;;;2.93;;
50483;SDS011;36409;52.168;20.878;2023-06-19T11:25:43;8.23;;;3.20;;
50483;SDS011;36409;52.168;20.878;2023-06-19T11:28:17;5.50;;;3.53;;
50483;SDS011;36409;52.168;20.878;2023-06-19T11:30:57;6.37;;;3.23;;
50483;SDS011;36409;52.168;20.878;2023-06-19T11:33:28;5.50;;;3.13;;
50483;SDS011;36409;52.168;20.878;2023-06-19T11:36:00;4.63;;;3.10;;
50483;SDS011;36409;52.168;20.878;2023-06-19T11:38:32;6.17;;;3.00;;
50483;SDS011;36409;52.168;20.878;2023-06-19T11:41:04;4.22;;;2.67;;
50483;SDS011;36409;52.168;20.878;2023-06-19T11:43:35;5.10;;;3.10;;
50483;SDS011;36409;52.168;20.878;2023-06-19T11:46:07;3.97;;;3.03;;
50483;SDS011;36409;52.168;20.878;2023-06-19T11:48:37;4.23;;;2.90;;
50483;SDS011;36409;52.168;20.878;2023-06-19T11:51:17;4.60;;;2.90;;
50483;SDS011;36409;52.168;20.878;2023-06-19T11:53:49;4.75;;;3.15;;
50483;SDS011;36409;52.168;20.878;2023-06-19T11:56:18;7.63;;;3.10;;
50483;SDS011;36409;52.168;20.878;2023-06-19T11:58:47;4.43;;;3.20;;
50483;SDS011;36409;52.168;20.878;2023-06-19T12:01:17;3.87;;;3.07;;
50483;SDS011;36409;52.168;20.878;2023-06-19T12:03:50;5.67;;;2.77;;
50483;SDS011;36409;52.168;20.878;2023-06-19T12:06:22;6.43;;;2.83;;
50483;SDS011;36409;52.168;20.878;2023-06-19T12:08:51;4.70;;;2.97;;
50483;SDS011;36409;52.168;20.878;2023-06-19T12:11:24;4.90;;;3.20;;
50483;SDS011;36409;52.168;20.878;2023-06-19T12:13:53;5.43;;;3.10;;
50483;SDS011;36409;52.168;20.878;2023-06-19T12:16:25;5.97;;;3.00;;
50483;SDS011;36409;52.168;20.878;2023-06-19T12:18:56;4.65;;;3.10;;
50483;SDS011;36409;52.168;20.878;2023-06-19T12:21:25;5.97;;;2.70;;
50483;SDS011;36409;52.168;20.878;2023-06-19T12:24:09;4.43;;;2.77;;
50483;SDS011;36409;52.168;20.878;2023-06-19T12:26:41;4.30;;;3.10;;
50483;SDS011;36409;52.168;20.878;2023-06-19T12:29:10;4.57;;;3.10;;
50483;SDS011;36409;52.168;20.878;2023-06-19T12:31:44;4.50;;;3.00;;
50483;SDS011;36409;52.168;20.878;2023-06-19T12:34:13;3.97;;;2.53;;
50483;SDS011;36409;52.168;20.878;2023-06-19T12:36:58;4.23;;;2.80;;
50483;SDS011;36409;52.168;20.878;2023-06-19T12:39:28;6.40;;;3.00;;
50483;SDS011;36409;52.168;20.878;2023-06-19T12:42:01;5.45;;;3.00;;
50483;SDS011;36409;52.168;20.878;2023-06-19T12:44:30;3.97;;;2.80;;
50483;SDS011;36409;52.168;20.878;2023-06-19T12:46:59;4.97;;;2.80;;
50483;SDS011;36409;52.168;20.878;2023-06-19T12:49:29;4.37;;;3.27;;
50483;SDS011;36409;52.168;20.878;2023-06-19T12:52:01;3.90;;;2.60;;
50483;SDS011;36409;52.168;20.878;2023-06-19T12:54:31;4.40;;;2.93;;
50483;SDS011;36409;52.168;20.878;2023-06-19T12:57:03;4.67;;;2.70;;
50483;SDS011;36409;52.168;20.878;2023-06-19T12:59:37;3.90;;;3.10;;
50483;SDS011;36409;52.168;20.878;2023-06-19T13:02:06;4.42;;;2.98;;
50483;SDS011;36409;52.168;20.878;2023-06-19T13:04:37;10.80;;;3.10;;
50483;SDS011;36409;52.168;20.878;2023-06-19T13:07:06;5.87;;;2.83;;
50483;SDS011;36409;52.168;20.878;2023-06-19T13:09:36;4.33;;;2.77;;
50483;SDS011;36409;52.168;20.878;2023-06-19T13:12:06;4.40;;;3.13;;
50483;SDS011;36409;52.168;20.878;2023-06-19T13:14:37;5.40;;;2.77;;
50483;SDS011;36409;52.168;20.878;2023-06-19T13:17:06;4.43;;;3.03;;
50483;SDS011;36409;52.168;20.878;2023-06-19T13:19:35;4.30;;;2.90;;
50483;SDS011;36409;52.168;20.878;2023-06-19T13:22:04;5.37;;;3.20;;
50483;SDS011;36409;52.168;20.878;2023-06-19T13:24:36;4.13;;;2.80;;
50483;SDS011;36409;52.168;20.878;2023-06-19T13:27:05;7.87;;;3.23;;
50483;SDS011;36409;52.168;20.878;2023-06-19T13:29:36;4.90;;;3.33;;
50483;SDS011;36409;52.168;20.878;2023-06-19T13:32:15;5.20;;;3.07;;
50483;SDS011;36409;52.168;20.878;2023-06-19T13:34:45;6.03;;;2.93;;
50483;SDS011;36409;52.168;20.878;2023-06-19T13:37:14;3.80;;;2.70;;
50483;SDS011;36409;52.168;20.878;2023-06-19T13:39:48;4.50;;;3.20;;
50483;SDS011;36409;52.168;20.878;2023-06-19T13:42:17;4.83;;;3.17;;
50483;SDS011;36409;52.168;20.878;2023-06-19T13:44:47;5.53;;;2.80;;
50483;SDS011;36409;52.168;20.878;2023-06-19T13:47:19;4.63;;;2.97;;
50483;SDS011;36409;52.168;20.878;2023-06-19T13:49:51;4.47;;;3.10;;
50483;SDS011;36409;52.168;20.878;2023-06-19T13:52:23;4.40;;;2.80;;
50483;SDS011;36409;52.168;20.878;2023-06-19T13:54:55;3.40;;;2.55;;
50483;SDS011;36409;52.168;20.878;2023-06-19T13:57:28;5.47;;;3.15;;
50483;SDS011;36409;52.168;20.878;2023-06-19T13:59:57;4.93;;;2.73;;
50483;SDS011;36409;52.168;20.878;2023-06-19T14:02:26;5.30;;;2.90;;
50483;SDS011;36409;52.168;20.878;2023-06-19T14:04:55;3.57;;;2.43;;
50483;SDS011;36409;52.168;20.878;2023-06-19T14:07:24;6.13;;;2.43;;
50483;SDS011;36409;52.168;20.878;2023-06-19T14:12:26;3.60;;;2.10;;
50483;SDS011;36409;52.168;20.878;2023-06-19T14:14:57;4.27;;;2.40;;
50483;SDS011;36409;52.168;20.878;2023-06-19T14:17:33;3.63;;;2.60;;
50483;SDS011;36409;52.168;20.878;2023-06-19T14:20:10;5.27;;;2.50;;
50483;SDS011;36409;52.168;20.878;2023-06-19T14:22:40;4.73;;;2.67;;
50483;SDS011;36409;52.168;20.878;2023-06-19T14:25:10;4.73;;;2.57;;
50483;SDS011;36409;52.168;20.878;2023-06-19T14:27:43;4.80;;;2.65;;
50483;SDS011;36409;52.168;20.878;2023-06-19T14:30:13;4.67;;;2.60;;
50483;SDS011;36409;52.168;20.878;2023-06-19T14:32:42;5.97;;;2.40;;
50483;SDS011;36409;52.168;20.878;2023-06-19T14:35:12;6.07;;;2.37;;
50483;SDS011;36409;52.168;20.878;2023-06-19T14:37:41;4.97;;;3.10;;
50483;SDS011;36409;52.168;20.878;2023-06-19T14:40:10;4.93;;;2.30;;
50483;SDS011;36409;52.168;20.878;2023-06-19T14:42:40;5.23;;;2.73;;
50483;SDS011;36409;52.168;20.878;2023-06-19T14:45:09;3.70;;;2.43;;
50483;SDS011;36409;52.168;20.878;2023-06-19T14:47:39;6.10;;;2.57;;
50483;SDS011;36409;52.168;20.878;2023-06-19T14:50:10;4.43;;;2.57;;
50483;SDS011;36409;52.168;20.878;2023-06-19T14:52:39;3.47;;;2.40;;
50483;SDS011;36409;52.168;20.878;2023-06-19T14:55:10;4.83;;;2.53;;
50483;SDS011;36409;52.168;20.878;2023-06-19T14:57:39;4.23;;;2.60;;
50483;SDS011;36409;52.168;20.878;2023-06-19T15:00:11;3.40;;;2.40;;
50483;SDS011;36409;52.168;20.878;2023-06-19T15:02:41;3.77;;;2.40;;
50483;SDS011;36409;52.168;20.878;2023-06-19T15:05:10;6.50;;;2.77;;
50483;SDS011;36409;52.168;20.878;2023-06-19T15:07:41;5.83;;;2.60;;
50483;SDS011;36409;52.168;20.878;2023-06-19T15:10:10;4.30;;;2.63;;
50483;SDS011;36409;52.168;20.878;2023-06-19T15:12:43;3.30;;;2.50;;
50483;SDS011;36409;52.168;20.878;2023-06-19T15:15:13;3.90;;;2.40;;